createdAt,value
2022-08-30T06:30:43.816Z,18.10
2022-08-30T06:35:58.467Z,18.10
2022-08-30T06:41:07.152Z,18.70
2022-08-30T06:46:14.312Z,19.10
2022-08-30T06:51:21.191Z,19.30
2022-08-30T06:56:27.408Z,19.50
2022-08-30T07:01:32.976Z,19.60
2022-08-30T07:06:36.583Z,19.80
2022-08-30T07:11:40.522Z,19.90
2022-08-30T07:16:46.554Z,20.00
2022-08-30T07:21:54.354Z,20.00
2022-08-30T07:26:57.920Z,20.20
2022-08-30T07:32:02.968Z,20.20
2022-08-30T07:37:06.410Z,20.40
2022-08-30T07:42:09.777Z,20.50
2022-08-30T07:47:14.445Z,20.50
2022-08-30T07:52:18.166Z,20.60
2022-08-30T07:57:21.687Z,20.70
2022-08-30T08:02:26.501Z,20.80
2022-08-30T08:07:31.236Z,20.80
2022-08-30T08:12:34.962Z,20.90
2022-08-30T08:17:39.789Z,21.00
2022-08-30T08:22:43.151Z,21.10
2022-08-30T08:27:48.855Z,21.20
2022-08-30T08:32:54.164Z,21.30
2022-08-30T08:37:57.461Z,21.40
2022-08-30T08:43:06.264Z,21.40
2022-08-30T08:48:15.945Z,21.50
2022-08-30T08:53:51.722Z,21.60
2022-08-30T08:58:57.444Z,21.70
2022-08-30T09:04:09.168Z,21.70
2022-08-30T09:09:13.319Z,21.80
2022-08-30T09:14:22.343Z,21.90
2022-08-30T09:19:40.160Z,21.90
2022-08-30T09:24:46.507Z,22.00
2022-08-30T09:29:55.658Z,22.10
2022-08-30T09:35:01.160Z,22.10
2022-08-30T09:40:13.378Z,22.20
2022-08-30T09:45:21.847Z,22.30
2022-08-30T09:50:34.313Z,22.40
2022-08-30T09:55:55.821Z,22.50
2022-08-30T10:01:06.684Z,22.50
2022-08-30T10:06:23.089Z,22.60
2022-08-30T10:11:33.523Z,22.60
2022-08-30T10:16:54.335Z,22.60
2022-08-30T10:22:05.017Z,22.70
2022-08-30T10:27:14.691Z,22.80
2022-08-30T10:32:25.258Z,22.70
2022-08-30T10:37:33.096Z,22.80
2022-08-30T10:42:40.073Z,22.90
2022-08-30T10:47:47.958Z,23.10
2022-08-30T10:53:00.527Z,23.30
2022-08-30T10:58:06.579Z,23.40
2022-08-30T11:03:48.526Z,23.50
2022-08-30T11:09:26.771Z,23.60
2022-08-30T11:14:31.445Z,23.70
2022-08-30T11:19:40.845Z,23.80
2022-08-30T11:25:02.955Z,23.80
2022-08-30T11:30:52.794Z,23.70
2022-08-30T11:35:56.687Z,23.80
2022-08-30T11:41:10.586Z,23.80
2022-08-30T11:46:24.371Z,23.80
2022-08-30T11:52:08.193Z,23.80
2022-08-30T11:57:21.834Z,23.90
2022-08-30T12:02:52.138Z,24.00
2022-08-30T12:08:01.592Z,24.10
2022-08-30T12:13:06.681Z,24.30
2022-08-30T12:18:30.232Z,24.40
2022-08-30T12:23:44.432Z,24.50
2022-08-30T12:28:52.134Z,24.80
2022-08-30T12:34:00.739Z,25.00
2022-08-30T12:39:11.273Z,25.20
2022-08-30T12:44:20.019Z,25.30
2022-08-30T12:49:27.131Z,25.40
2022-08-30T12:54:32.185Z,25.50
2022-08-30T12:59:56.714Z,25.60
2022-08-30T13:05:34.547Z,25.60
2022-08-30T13:10:38.281Z,25.60
2022-08-30T13:15:43.880Z,25.60
2022-08-30T13:20:48.926Z,25.70
2022-08-30T13:25:52.387Z,25.90
2022-08-30T13:30:55.884Z,26.10
2022-08-30T13:36:00.935Z,26.20
2022-08-30T13:41:04.285Z,26.30
2022-08-30T13:46:09.524Z,26.50
2022-08-30T13:51:15.266Z,26.70
2022-08-30T13:56:18.895Z,26.90
2022-08-30T14:01:24.867Z,26.90
2022-08-30T14:06:33.907Z,26.90
2022-08-30T14:11:38.034Z,26.90
2022-08-30T14:16:43.670Z,27.00
2022-08-30T14:21:49.403Z,27.20
2022-08-30T14:26:53.309Z,27.40
2022-08-30T14:31:56.908Z,27.70
2022-08-30T14:37:06.716Z,27.80
2022-08-30T14:42:12.660Z,27.90
2022-08-30T14:47:25.648Z,28.00
2022-08-30T14:52:34.480Z,28.40
2022-08-30T14:57:39.571Z,29.10
2022-08-30T15:02:43.025Z,29.60
2022-08-30T15:07:50.931Z,30.10
2022-08-30T15:12:54.571Z,30.40
2022-08-30T15:17:58.322Z,30.60
2022-08-30T15:23:03.140Z,30.70
2022-08-30T15:28:08.674Z,30.60
2022-08-30T15:33:13.863Z,30.40
2022-08-30T15:38:19.502Z,30.00
2022-08-30T15:43:25.552Z,29.80
2022-08-30T15:48:29.029Z,29.50
2022-08-30T15:53:36.142Z,29.30
2022-08-30T15:58:39.622Z,29.40
2022-08-30T16:03:44.862Z,29.90
2022-08-30T16:08:51.427Z,30.30
2022-08-30T16:13:59.117Z,30.60
2022-08-30T16:19:02.716Z,30.80
2022-08-30T16:24:13.446Z,30.90
2022-08-30T16:29:17.386Z,31.20
2022-08-30T16:34:22.378Z,31.50
2022-08-30T16:39:27.238Z,31.60
2022-08-30T16:44:30.910Z,31.50
2022-08-30T16:49:34.443Z,31.30
2022-08-30T16:54:39.221Z,31.10
2022-08-30T16:59:44.466Z,30.70
2022-08-30T17:04:52.783Z,30.30
2022-08-30T17:09:58.564Z,29.90
2022-08-30T17:15:02.131Z,29.70
2022-08-30T17:20:10.614Z,29.20
2022-08-30T17:25:15.539Z,29.00
2022-08-30T17:30:19.341Z,28.60
2022-08-30T17:35:23.809Z,28.40
2022-08-30T17:40:29.916Z,28.20
2022-08-30T17:45:33.564Z,27.90
2022-08-30T17:50:37.587Z,27.70
2022-08-30T17:55:48.304Z,27.50
2022-08-30T18:00:54.132Z,27.20
2022-08-30T18:05:57.815Z,27.00
2022-08-30T18:11:04.112Z,26.80
2022-08-30T18:16:10.276Z,26.60
2022-08-30T18:21:18.263Z,26.50
2022-08-30T18:26:27.939Z,26.30
2022-08-30T18:31:32.130Z,26.10
2022-08-30T18:36:36.186Z,25.90
2022-08-30T18:41:43.143Z,25.80
2022-08-30T18:46:55.919Z,25.70
2022-08-30T18:52:00.534Z,25.60
2022-08-30T18:57:06.105Z,25.50
2022-08-30T19:02:14.601Z,25.50
2022-08-30T19:07:20.355Z,25.40
2022-08-30T19:12:26.078Z,25.30
2022-08-30T19:17:31.123Z,25.20
2022-08-30T19:23:05.845Z,25.10
2022-08-30T19:27:59.787Z,25.00
2022-08-30T19:33:03.717Z,24.90
2022-08-30T19:38:09.482Z,24.70
2022-08-30T19:43:14.880Z,24.50
2022-08-30T19:48:22.618Z,24.50
2022-08-30T19:53:26.023Z,24.30
2022-08-30T19:58:31.257Z,24.30
2022-08-30T20:03:34.954Z,24.20
2022-08-30T20:08:38.550Z,24.10
2022-08-30T20:13:45.438Z,24.00
2022-08-30T20:18:49.639Z,23.90
2022-08-30T20:23:52.941Z,23.80
2022-08-30T20:28:59.925Z,23.70
2022-08-30T20:34:04.651Z,23.60
2022-08-30T20:39:09.836Z,23.60
2022-08-30T20:44:15.106Z,23.50
2022-08-30T20:49:19.614Z,23.40
2022-08-30T20:54:23.056Z,23.30
2022-08-30T20:59:28.716Z,23.20
2022-08-30T21:04:32.595Z,23.10
2022-08-30T21:09:37.066Z,23.10
2022-08-30T21:14:42.109Z,22.90
2022-08-30T21:19:46.271Z,22.90
2022-08-30T21:24:49.653Z,22.80
2022-08-30T21:29:54.384Z,22.80
2022-08-30T21:35:15.663Z,22.80
2022-08-30T21:40:19.262Z,22.70
2022-08-30T21:45:23.989Z,22.70
2022-08-30T21:50:27.538Z,22.70
2022-08-30T21:55:30.893Z,22.70
2022-08-30T22:00:35.687Z,22.60
2022-08-30T22:05:39.042Z,22.60
2022-08-30T22:10:45.032Z,22.50
2022-08-30T22:15:49.962Z,22.40
2022-08-30T22:20:53.357Z,22.30
2022-08-30T22:25:57.149Z,22.20
2022-08-30T22:31:04.235Z,22.10
2022-08-30T22:36:09.966Z,22.10
2022-08-30T22:41:15.502Z,22.00
2022-08-30T22:46:21.604Z,22.00
2022-08-30T22:51:33.765Z,22.00
2022-08-30T22:56:38.746Z,21.90
2022-08-30T23:01:44.091Z,21.90
2022-08-30T23:06:49.599Z,21.80
2022-08-30T23:11:53.575Z,21.80
2022-08-30T23:16:58.611Z,21.80
2022-08-30T23:22:02.662Z,21.80
2022-08-30T23:27:23.588Z,21.80
2022-08-30T23:32:45.810Z,21.80
2022-08-30T23:38:07.412Z,21.80
2022-08-30T23:43:28.782Z,21.70
2022-08-30T23:48:52.101Z,21.70
2022-08-30T23:54:13.459Z,21.80
2022-08-30T23:59:34.491Z,21.80
